Thursday, August 16, 2018, 8:58 AM CDT
Back to Local

KUGN, Chicago/waukegan Regional

Location: Waukegan, IL, United States Lat: 42.417
Local Time: 8:58 AM CDT (13:58 GMT) Lon: -87.867
Time Zone: US/Central Elev: 728 ft

Show me the last for .
Show Decoded

2018-08-16 08:25 METAR KUGN 161325Z 33003KT 10SM BKN015 BKN028 24/22 A2996 RMK AO2 T02440217 =
2018-08-16 08:23 METAR KUGN 161323Z 33004KT 10SM SCT015 BKN028 24/22 A2996 RMK AO2 T02440217 =
2018-08-16 07:55 METAR KUGN 161255Z 00000KT 9SM SCT013 SCT090 24/22 A2996 RMK AO2 SLP133
                 T02390217 =
2018-08-16 06:55 METAR KUGN 161155Z COR 00000KT 7SM SCT012 BKN090 21/21 A2995 RMK AO2 SLP131
                 T02110211 10222 20200 53009 =
2018-08-16 05:55 METAR KUGN 161055Z 00000KT 8SM SCT013 BKN017 BKN090 21/21 A2993 RMK AO2 SLP123
                 T02110211 =
2018-08-16 05:21 METAR KUGN 161021Z AUTO 00000KT 9SM SCT012 BKN023 21/21 A2992 RMK AO2 T02110211
                 =
2018-08-16 05:10 METAR KUGN 161010Z AUTO 00000KT 8SM BKN013 21/21 A2992 RMK AO2 T02110211 =
2018-08-16 04:55 METAR KUGN 160955Z AUTO 00000KT 8SM FEW012 21/21 A2992 RMK AO2 SLP120 T02110211
                 =
2018-08-16 04:23 METAR KUGN 160923Z AUTO 00000KT 9SM FEW018 SCT039 22/21 A2992 RMK AO2 T02170211
                 =
2018-08-16 03:55 METAR KUGN 160855Z AUTO 00000KT 10SM OVC015 22/22 A2992 RMK AO2 SLP118 T02220217
                 56002 =
2018-08-16 02:55 METAR KUGN 160755Z AUTO 00000KT 8SM OVC016 22/21 A2992 RMK AO2 SLP118 T02170211
                 =
2018-08-16 02:16 METAR KUGN 160716Z AUTO 00000KT 7SM BKN016 21/21 A2992 RMK AO2 T02110206 =
2018-08-16 01:55 METAR KUGN 160655Z AUTO 00000KT 8SM SCT015 22/21 A2992 RMK AO2 SLP117 T02170211
                 =
2018-08-16 00:55 METAR KUGN 160555Z AUTO 00000KT 8SM SCT012 BKN070 22/22 A2993 RMK AO2 SLP121
                 T02220217 10244 20217 402830206 50001 =
2018-08-15 23:55 METAR KUGN 160455Z AUTO 00000KT 10SM BKN033 OVC055 23/22 A2994 RMK AO2 SLP124
                 T02330217 =
2018-08-15 22:55 METAR KUGN 160355Z AUTO 23005KT 10SM SCT033 23/22 A2993 RMK AO2 SLP121 T02280217
                 =
2018-08-15 21:55 METAR KUGN 160255Z AUTO 21006KT 9SM BKN036 BKN046 OVC055 24/22 A2992 RMK AO2
                 SLP121 T02390222 53007 =
2018-08-15 20:55 METAR KUGN 160155Z AUTO VRB03KT 9SM CLR 24/23 A2991 RMK AO2 LTG DSNT S SLP117
                 T02390228 =
2018-08-15 19:55 METAR KUGN 160055Z 12005KT 8SM FEW065 SCT085 24/23 A2991 RMK AO2 LTG DSNT S AND
                 SW SLP117 LAST T02440228 =
2018-08-15 18:55 METAR KUGN 152355Z 12005KT 9SM FEW070 24/22 A2990 RMK AO2 LTG DSNT S-W SLP116
                 T02440217 10283 20244 56001 =
2018-08-15 17:55 METAR KUGN 152255Z 13005KT 9SM CLR 25/22 A2990 RMK AO2 LTG DSNT SW-NW SLP116
                 T02500222 =
2018-08-15 16:55 METAR KUGN 152155Z COR 14008KT 7SM FEW015 BKN100 26/22 A2990 RMK AO2 LTG DSNT SW
                 SLP114 T02610222 =
2018-08-15 15:55 METAR KUGN 152055Z 11010KT 8SM CLR 27/22 A2991 RMK AO2 SLP115 T02720222 56013 =
2018-08-15 14:55 METAR KUGN 151955Z 11007KT 9SM SCT120 28/22 A2991 RMK AO2 SLP117 T02780217 =
2018-08-15 13:55 METAR KUGN 151855Z 12009KT 10SM FEW110 28/22 A2993 RMK AO2 SLP122 T02780217 =
2018-08-15 12:55 METAR KUGN 151755Z 13009KT 9SM BKN110 27/22 A2995 RMK AO2 SLP128 T02720222 10283
                 20211 57002 =
2018-08-15 11:55 METAR KUGN 151655Z 15009KT 10SM FEW060 28/22 A2995 RMK AO2 SLP128 T02780217 =
2018-08-15 10:55 METAR KUGN 151555Z VRB05KT 10SM SCT050 27/22 A2995 RMK AO2 SLP130 T02720217 =
2018-08-15 09:55 METAR KUGN 151455Z 12004KT 8SM SCT047 BKN080 25/21 A2995 RMK AO2 SLP130
                 T02500211 56002 =

Support USWX by starting your Amazon purchase here.